Time;durP1;ratioP1;P1;durP2;ratioP2;P2;SDS_P1;SDS_P2;PMS_P1;PMS_P2;Temp;Humidity;BMP_temperature;BMP_pressure;BME280_temperature;BME280_humidity;BME280_pressure;Samples;Min_cycle;Max_cycle;Signal;HPM_P1;HPM_P2
2022/12/08 00:01:07;;;;;;;5.47;0.77;;;2.70;99.90;;;;;;5000760;28;20097;-62
2022/12/08 00:03:33;;;;;;;7.60;1.40;;;2.60;99.90;;;;;;4996970;28;20042;-63
2022/12/08 00:11:31;;;;;;;3.92;0.77;;;2.50;99.90;;;;;;4994739;28;20042;-63
2022/12/08 00:13:57;;;;;;;3.58;0.90;;;2.40;99.90;;;;;;5001324;28;20038;-63
2022/12/08 00:16:23;;;;;;;4.72;0.88;;;2.40;99.90;;;;;;4998320;28;20061;-63
2022/12/08 00:18:48;;;;;;;12.10;1.40;;;2.40;99.90;;;;;;4999745;28;20026;-63
2022/12/08 00:21:14;;;;;;;5.68;1.77;;;2.30;99.90;;;;;;4998982;28;20200;-64
2022/12/08 00:23:40;;;;;;;8.20;1.00;;;2.30;99.90;;;;;;5001505;28;20087;-63
2022/12/08 00:26:06;;;;;;;4.35;1.05;;;2.30;99.90;;;;;;4994805;28;20073;-63
2022/12/08 00:28:32;;;;;;;5.65;0.88;;;2.20;99.90;;;;;;4999141;28;20040;-63
2022/12/08 00:30:58;;;;;;;6.60;1.23;;;2.20;99.90;;;;;;4996554;28;20115;-63
2022/12/08 00:33:26;;;;;;;9.15;1.10;;;2.20;99.90;;;;;;4996485;28;20050;-64
2022/12/08 00:35:52;;;;;;;8.50;0.85;;;2.20;99.90;;;;;;4995092;28;20371;-63
2022/12/08 00:38:18;;;;;;;8.70;1.20;;;2.20;99.90;;;;;;4998463;28;20089;-64
2022/12/08 00:40:47;;;;;;;5.10;1.23;;;2.20;99.90;;;;;;4996590;28;20051;-63
2022/12/08 00:43:13;;;;;;;4.35;0.98;;;2.20;99.90;;;;;;4999037;28;20041;-63
2022/12/08 00:45:39;;;;;;;8.73;1.08;;;2.20;99.90;;;;;;4996338;28;20038;-63
2022/12/08 00:48:05;;;;;;;5.55;0.70;;;2.10;99.90;;;;;;5004125;28;20049;-63
2022/12/08 00:50:31;;;;;;;6.57;0.70;;;2.10;99.90;;;;;;4996819;28;20045;-64
2022/12/08 00:52:57;;;;;;;5.30;1.00;;;2.10;99.90;;;;;;4993204;28;20038;-64
2022/12/08 00:55:23;;;;;;;9.30;1.17;;;2.00;99.90;;;;;;4998695;28;20053;-64
2022/12/08 00:57:48;;;;;;;6.60;1.10;;;2.00;99.90;;;;;;4999114;28;20117;-63
2022/12/08 01:00:14;;;;;;;3.42;0.88;;;1.90;99.90;;;;;;4997092;28;20050;-63
2022/12/08 01:02:41;;;;;;;10.20;1.33;;;1.90;99.90;;;;;;4998667;28;20414;-63
2022/12/08 01:05:07;;;;;;;9.07;0.70;;;1.90;99.90;;;;;;4994635;28;20061;-64
2022/12/08 01:07:32;;;;;;;7.05;0.80;;;1.90;99.90;;;;;;5001889;28;20564;-63
2022/12/08 01:09:58;;;;;;;5.55;1.00;;;1.80;99.90;;;;;;4999981;28;20109;-63
2022/12/08 01:12:24;;;;;;;7.82;1.08;;;1.80;99.90;;;;;;5002504;28;20048;-64
2022/12/08 01:14:50;;;;;;;7.47;1.88;;;1.80;99.90;;;;;;5002675;28;20470;-63
2022/12/08 01:17:15;;;;;;;7.30;0.95;;;1.70;99.90;;;;;;5001934;28;20418;-63
2022/12/08 01:19:41;;;;;;;4.95;0.80;;;1.70;99.90;;;;;;5001522;28;20509;-63
2022/12/08 01:22:07;;;;;;;6.25;1.13;;;1.70;99.90;;;;;;5004018;28;20417;-62
2022/12/08 01:24:32;;;;;;;6.93;0.70;;;1.70;99.90;;;;;;4999533;28;20121;-63
2022/12/08 01:26:58;;;;;;;8.82;1.70;;;1.70;99.90;;;;;;4999991;28;20481;-63
2022/12/08 01:29:26;;;;;;;4.68;1.00;;;1.60;99.90;;;;;;5006313;28;20125;-63
2022/12/08 01:31:51;;;;;;;5.32;1.05;;;1.60;99.90;;;;;;4997602;28;20494;-63
2022/12/08 01:34:17;;;;;;;6.18;0.95;;;1.60;99.90;;;;;;5004708;28;20042;-62
2022/12/08 01:36:43;;;;;;;4.13;0.80;;;1.60;99.90;;;;;;5002596;28;20038;-62
2022/12/08 01:39:18;;;;;;;3.47;0.90;;;1.70;99.90;;;;;;5005156;28;20046;-63
2022/12/08 01:41:45;;;;;;;7.00;1.25;;;1.70;99.90;;;;;;5003812;28;20046;-64
2022/12/08 01:44:11;;;;;;;5.57;1.67;;;1.70;99.90;;;;;;5001134;28;20038;-64
2022/12/08 01:46:41;;;;;;;5.38;1.50;;;1.80;99.90;;;;;;5003345;28;20061;-63
2022/12/08 01:49:24;;;;;;;11.15;1.63;;;1.90;99.90;;;;;;5003793;28;20043;-63
2022/12/08 01:51:59;;;;;;;6.22;1.30;;;1.90;99.90;;;;;;5000159;28;20059;-63
2022/12/08 01:54:30;;;;;;;6.93;1.00;;;2.00;99.90;;;;;;5005866;28;20111;-63
2022/12/08 01:57:05;;;;;;;6.20;1.15;;;2.10;99.90;;;;;;5000730;28;20683;-63
2022/12/08 01:59:31;;;;;;;;;;;2.10;99.90;;;;;;5002942;28;20132;-62
2022/12/08 02:01:57;;;;;;;8.00;1.23;;;2.20;99.90;;;;;;4991297;28;20012;-63
2022/12/08 02:04:23;;;;;;;7.95;1.13;;;2.20;99.90;;;;;;5000248;28;20570;-64
2022/12/08 02:06:51;;;;;;;5.68;1.35;;;2.20;99.90;;;;;;4997739;28;20048;-63
2022/12/08 02:09:18;;;;;;;8.85;0.98;;;2.30;99.90;;;;;;5002117;28;20045;-64
2022/12/08 02:11:44;;;;;;;6.95;1.30;;;2.30;99.90;;;;;;5001155;28;20049;-63
2022/12/08 02:14:12;;;;;;;5.75;1.02;;;2.40;99.90;;;;;;5001654;28;20046;-64
2022/12/08 02:17:17;;;;;;;6.68;0.90;;;2.40;99.90;;;;;;4996598;28;20033;-63
2022/12/08 02:20:04;;;;;;;3.50;0.90;;;2.50;99.90;;;;;;4998558;28;20383;-64
2022/12/08 02:22:57;;;;;;;7.57;1.08;;;2.50;99.90;;;;;;4998196;28;20042;-64
2022/12/08 02:25:26;;;;;;;3.65;0.90;;;2.50;99.90;;;;;;5002794;28;20273;-64
2022/12/08 02:27:54;;;;;;;6.32;1.88;;;2.50;99.90;;;;;;5001549;28;20497;-63
2022/12/08 02:30:21;;;;;;;4.25;0.88;;;2.60;99.90;;;;;;4997117;28;20035;-64
2022/12/08 02:33:08;;;;;;;5.95;0.88;;;2.60;99.90;;;;;;4999434;28;20046;-64
2022/12/08 02:35:48;;;;;;;5.47;0.85;;;2.50;99.90;;;;;;5002636;28;20165;-64
2022/12/08 02:38:30;;;;;;;4.45;0.95;;;2.50;99.90;;;;;;5002120;28;20081;-64
2022/12/08 02:41:33;;;;;;;4.97;0.73;;;2.50;99.90;;;;;;5001602;28;20046;-63
2022/12/08 02:44:07;;;;;;;4.32;0.70;;;2.50;99.90;;;;;;4998945;28;20038;-63
2022/12/08 02:46:43;;;;;;;6.30;1.05;;;2.50;99.90;;;;;;5002391;28;20136;-64
2022/12/08 02:49:09;;;;;;;3.35;0.80;;;2.40;99.90;;;;;;4994273;28;20061;-63
2022/12/08 02:51:35;;;;;;;3.53;0.70;;;2.40;99.90;;;;;;4996655;28;20323;-64
2022/12/08 02:54:02;;;;;;;4.95;0.90;;;2.40;99.90;;;;;;4998464;28;20049;-64
2022/12/08 02:56:39;;;;;;;6.72;1.00;;;2.50;99.90;;;;;;5000140;28;20046;-63
2022/12/08 02:59:16;;;;;;;6.03;1.15;;;2.40;99.90;;;;;;4998759;28;20042;-64
2022/12/08 03:02:22;;;;;;;3.88;0.63;;;2.40;99.90;;;;;;4998043;28;20046;-64
2022/12/08 03:05:28;;;;;;;5.55;0.77;;;2.40;99.90;;;;;;5003449;28;20038;-63
2022/12/08 03:08:31;;;;;;;3.33;0.70;;;2.50;99.90;;;;;;5001604;28;20120;-63
2022/12/08 03:11:29;;;;;;;3.97;0.93;;;2.50;99.90;;;;;;4999120;28;20038;-63
2022/12/08 03:13:59;;;;;;;2.03;0.52;;;2.60;99.90;;;;;;5000286;28;20043;-63
2022/12/08 03:16:27;;;;;;;5.13;0.70;;;2.60;99.90;;;;;;4997636;28;20066;-63
2022/12/08 03:19:09;;;;;;;2.88;0.50;;;2.60;99.90;;;;;;4998784;28;20041;-65
2022/12/08 03:21:37;;;;;;;3.85;0.50;;;2.70;99.90;;;;;;5004500;28;20034;-64
2022/12/08 03:24:06;;;;;;;3.80;0.70;;;2.60;99.90;;;;;;5002326;28;20109;-63
2022/12/08 03:26:42;;;;;;;4.47;0.70;;;2.70;99.90;;;;;;5003060;28;20124;-63
2022/12/08 03:29:08;;;;;;;3.92;0.43;;;2.70;99.90;;;;;;4998517;28;20041;-64
2022/12/08 03:31:40;;;;;;;6.55;0.65;;;2.70;99.90;;;;;;4997340;28;20033;-63
2022/12/08 03:34:08;;;;;;;5.38;0.50;;;2.70;99.90;;;;;;4998261;28;20042;-64
2022/12/08 03:36:34;;;;;;;4.72;0.80;;;2.70;99.90;;;;;;4998658;28;20037;-64
2022/12/08 03:38:59;;;;;;;3.80;1.05;;;2.80;99.90;;;;;;5001423;28;20431;-64
2022/12/08 03:41:25;;;;;;;5.45;0.77;;;2.80;99.90;;;;;;4993757;28;20464;-65
2022/12/08 03:43:59;;;;;;;6.55;1.00;;;2.80;99.90;;;;;;4999282;28;20042;-64
2022/12/08 03:46:27;;;;;;;5.47;0.85;;;2.90;99.90;;;;;;4997743;28;20406;-65
2022/12/08 03:48:53;;;;;;;4.90;0.85;;;2.90;99.90;;;;;;5006755;28;20074;-64
2022/12/08 03:51:19;;;;;;;6.45;0.80;;;2.90;99.90;;;;;;4993685;28;20088;-64
2022/12/08 03:53:45;;;;;;;2.45;0.47;;;2.90;99.90;;;;;;5000222;28;20049;-63
2022/12/08 03:56:31;;;;;;;3.53;0.40;;;2.90;99.90;;;;;;4999326;28;20042;-64
2022/12/08 03:58:57;;;;;;;3.85;0.40;;;2.90;99.90;;;;;;5001664;28;20034;-64
2022/12/08 04:01:23;;;;;;;5.35;0.60;;;2.80;99.90;;;;;;4996887;28;20056;-63
2022/12/08 04:03:49;;;;;;;1.88;0.70;;;2.70;99.90;;;;;;4998789;28;20396;-63
2022/12/08 04:06:16;;;;;;;5.43;0.90;;;2.70;99.90;;;;;;4995273;28;20045;-65
2022/12/08 04:08:42;;;;;;;5.18;0.70;;;2.70;99.90;;;;;;5004766;28;20034;-64
2022/12/08 04:11:07;;;;;;;4.60;0.70;;;2.70;99.90;;;;;;4995495;28;20030;-63
2022/12/08 04:13:34;;;;;;;4.03;0.70;;;2.70;99.90;;;;;;4997901;28;20176;-64
2022/12/08 04:16:00;;;;;;;4.50;1.00;;;2.80;99.90;;;;;;4997372;28;20040;-64
2022/12/08 04:18:26;;;;;;;5.07;0.80;;;2.80;99.90;;;;;;4999315;28;20104;-64
2022/12/08 04:20:52;;;;;;;3.00;1.02;;;2.80;99.90;;;;;;5001989;28;20038;-63
2022/12/08 04:23:17;;;;;;;3.95;1.00;;;2.80;99.90;;;;;;4997661;28;20034;-63
2022/12/08 04:25:43;;;;;;;5.90;1.20;;;2.80;99.90;;;;;;4999276;28;20502;-64
2022/12/08 04:28:09;;;;;;;4.53;1.17;;;2.80;99.90;;;;;;4995371;28;20128;-63
2022/12/08 04:30:35;;;;;;;9.48;1.70;;;2.80;99.90;;;;;;4999877;28;20135;-63
2022/12/08 04:33:01;;;;;;;6.38;2.13;;;2.80;99.90;;;;;;4995181;28;20418;-63
2022/12/08 04:35:27;;;;;;;6.30;1.40;;;2.90;99.90;;;;;;4998036;28;20038;-64
2022/12/08 04:37:52;;;;;;;5.55;1.83;;;2.80;99.90;;;;;;4995937;28;20037;-63
2022/12/08 04:40:18;;;;;;;6.75;1.90;;;2.80;99.90;;;;;;5017568;28;20089;-63
2022/12/08 04:42:44;;;;;;;7.40;2.65;;;2.90;99.90;;;;;;4996259;28;20038;-63
2022/12/08 04:45:10;;;;;;;7.47;1.67;;;2.90;99.90;;;;;;4999607;28;20076;-63
2022/12/08 04:47:36;;;;;;;5.10;1.73;;;2.90;99.90;;;;;;5003835;28;20592;-63
2022/12/08 04:50:03;;;;;;;5.28;1.80;;;2.90;99.90;;;;;;5002049;28;20077;-63
2022/12/08 04:52:29;;;;;;;5.97;1.70;;;2.80;99.90;;;;;;5000159;28;20519;-64
2022/12/08 04:54:54;;;;;;;3.33;1.13;;;2.80;99.90;;;;;;4998895;28;20049;-63
2022/12/08 04:57:20;;;;;;;5.38;1.80;;;2.80;99.90;;;;;;4999068;28;20038;-63
2022/12/08 04:59:45;;;;;;;7.35;1.30;;;2.80;99.90;;;;;;4999806;28;20030;-64
2022/12/08 05:02:12;;;;;;;3.28;1.50;;;2.80;99.90;;;;;;5001896;28;20489;-63
2022/12/08 05:04:38;;;;;;;6.97;1.60;;;2.80;99.90;;;;;;4999392;28;20034;-64
2022/12/08 05:07:04;;;;;;;6.95;1.38;;;2.80;99.90;;;;;;5000550;28;20036;-63
2022/12/08 05:09:29;;;;;;;5.95;1.48;;;2.80;99.90;;;;;;5000930;28;20279;-63
2022/12/08 05:11:55;;;;;;;5.20;1.55;;;2.80;99.90;;;;;;4998574;28;20069;-63
2022/12/08 05:14:21;;;;;;;3.15;1.30;;;2.70;99.90;;;;;;4997135;28;20034;-63
2022/12/08 05:16:47;;;;;;;5.13;1.42;;;2.70;99.90;;;;;;5004489;28;20501;-63
2022/12/08 05:19:14;;;;;;;6.18;1.60;;;2.70;99.90;;;;;;5001108;28;20042;-63
2022/12/08 05:21:40;;;;;;;5.13;1.30;;;2.70;99.90;;;;;;4998488;28;20042;-63
2022/12/08 05:24:06;;;;;;;3.92;1.27;;;2.70;99.90;;;;;;5000667;28;20041;-63
2022/12/08 05:26:32;;;;;;;2.42;1.08;;;2.80;99.90;;;;;;5003848;28;20038;-62
2022/12/08 05:28:58;;;;;;;5.70;1.15;;;2.70;99.90;;;;;;4999724;28;20463;-63
2022/12/08 05:31:23;;;;;;;5.68;1.00;;;2.70;99.90;;;;;;5004418;28;20111;-63
2022/12/08 05:33:50;;;;;;;4.72;1.13;;;2.70;99.90;;;;;;4999177;28;20034;-63
2022/12/08 05:36:16;;;;;;;3.92;1.10;;;2.70;99.90;;;;;;5000705;28;20050;-63
2022/12/08 05:38:42;;;;;;;5.07;0.90;;;2.70;99.90;;;;;;5004371;28;20473;-64
2022/12/08 05:41:10;;;;;;;7.18;3.22;;;2.70;99.90;;;;;;5006108;28;20341;-63
2022/12/08 05:43:36;;;;;;;9.98;3.00;;;2.70;99.90;;;;;;5000500;28;20426;-63
2022/12/08 05:46:02;;;;;;;6.65;1.63;;;2.60;99.90;;;;;;5003642;28;20141;-63
2022/12/08 05:48:27;;;;;;;4.82;1.02;;;2.70;99.90;;;;;;5002158;28;20216;-63
2022/12/08 05:50:54;;;;;;;4.18;1.42;;;2.70;99.90;;;;;;4998949;28;20111;-63
2022/12/08 05:53:20;;;;;;;5.00;1.20;;;2.70;99.90;;;;;;5000378;28;20061;-63
2022/12/08 05:55:46;;;;;;;4.65;0.75;;;2.70;99.90;;;;;;5001849;28;20034;-62
2022/12/08 05:58:14;;;;;;;3.10;0.68;;;2.70;99.90;;;;;;5003563;28;20042;-65
2022/12/08 06:00:41;;;;;;;5.20;0.73;;;2.70;99.90;;;;;;5002062;28;20068;-63
2022/12/08 06:03:07;;;;;;;2.55;0.70;;;2.70;99.90;;;;;;5001598;28;20045;-62
2022/12/08 06:05:33;;;;;;;3.60;0.82;;;2.70;99.90;;;;;;4999211;28;20030;-63
2022/12/08 06:07:59;;;;;;;6.25;0.98;;;2.70;99.90;;;;;;5005253;28;20038;-63
2022/12/08 06:10:25;;;;;;;7.72;0.90;;;2.70;99.90;;;;;;5001448;28;20560;-63
2022/12/08 06:12:51;;;;;;;5.18;0.70;;;2.70;99.90;;;;;;5000628;28;20034;-62
2022/12/08 06:15:17;;;;;;;8.07;1.33;;;2.80;99.90;;;;;;5004947;28;20070;-63
2022/12/08 06:17:42;;;;;;;2.70;0.85;;;2.70;99.90;;;;;;4998713;28;20394;-64
2022/12/08 06:20:08;;;;;;;2.47;0.90;;;2.80;99.90;;;;;;4996032;28;20034;-63
2022/12/08 06:22:35;;;;;;;3.42;1.00;;;2.70;99.90;;;;;;5002333;28;20077;-63
2022/12/08 06:25:01;;;;;;;2.28;0.65;;;2.70;99.90;;;;;;5000380;28;20038;-63
2022/12/08 06:27:26;;;;;;;3.08;0.60;;;2.70;99.90;;;;;;5001229;28;20104;-62
2022/12/08 06:29:52;;;;;;;6.03;1.50;;;2.70;99.90;;;;;;5002199;28;20038;-63
2022/12/08 06:32:18;;;;;;;2.78;0.90;;;2.70;99.90;;;;;;5002498;28;20074;-63
2022/12/08 06:34:44;;;;;;;4.00;1.10;;;2.60;99.90;;;;;;5004647;28;20270;-63
2022/12/08 06:37:10;;;;;;;7.05;0.90;;;2.60;99.90;;;;;;5003255;28;20497;-63
2022/12/08 06:39:35;;;;;;;8.18;1.00;;;2.60;99.90;;;;;;5001414;28;20128;-64
2022/12/08 06:43:01;;;;;;;4.82;1.02;;;2.70;99.90;;;;;;5000709;28;20125;-63
2022/12/08 06:44:56;;;;;;;3.80;1.10;;;2.60;99.90;;;;;;4996258;28;20510;-63
2022/12/08 06:47:22;;;;;;;8.60;1.60;;;2.60;99.90;;;;;;5003080;28;20069;-64
2022/12/08 06:49:48;;;;;;;8.63;1.67;;;2.60;99.90;;;;;;5002679;28;20354;-63
2022/12/08 06:52:14;;;;;;;5.07;1.48;;;2.60;99.90;;;;;;4999485;28;20593;-64
2022/12/08 06:54:40;;;;;;;3.65;1.67;;;2.60;99.90;;;;;;5003624;28;20160;-63
2022/12/08 06:57:05;;;;;;;5.03;1.65;;;2.60;99.90;;;;;;5002796;28;20125;-64
2022/12/08 06:59:31;;;;;;;2.80;1.85;;;2.60;99.90;;;;;;5002379;28;20041;-63
2022/12/08 07:01:57;;;;;;;4.43;1.17;;;2.60;99.90;;;;;;4998085;28;20053;-62
2022/12/08 07:04:23;;;;;;;2.70;0.70;;;2.60;99.90;;;;;;5003514;28;20038;-63
2022/12/08 07:06:48;;;;;;;4.55;0.70;;;2.70;99.90;;;;;;5004465;28;20675;-63
2022/12/08 07:09:14;;;;;;;3.35;0.50;;;2.70;99.90;;;;;;5006841;28;20063;-63
2022/12/08 07:11:40;;;;;;;1.77;0.40;;;2.70;99.90;;;;;;4999538;28;20053;-64
2022/12/08 07:14:06;;;;;;;5.05;0.57;;;2.60;99.90;;;;;;5004036;28;20029;-64
2022/12/08 07:16:31;;;;;;;5.88;0.50;;;2.70;99.90;;;;;;4999556;28;20399;-64
2022/12/08 07:18:58;;;;;;;3.08;0.68;;;2.70;99.90;;;;;;5000541;28;20031;-63
2022/12/08 07:21:24;;;;;;;1.88;0.50;;;2.70;99.90;;;;;;5000960;28;20034;-63
2022/12/08 07:23:50;;;;;;;3.72;0.35;;;2.60;99.90;;;;;;5004324;28;20125;-63
2022/12/08 07:26:16;;;;;;;5.32;0.50;;;2.60;99.90;;;;;;5001679;28;20173;-64
2022/12/08 07:28:42;;;;;;;5.15;0.47;;;2.60;99.90;;;;;;5002183;28;20034;-64
2022/12/08 07:31:22;;;;;;;5.28;0.55;;;2.60;99.90;;;;;;5000767;28;20048;-63
2022/12/08 07:33:51;;;;;;;4.75;0.40;;;2.60;99.90;;;;;;4996536;28;20038;-64
2022/12/08 07:36:17;;;;;;;2.58;0.50;;;2.50;99.90;;;;;;5000760;28;20346;-64
2022/12/08 07:38:43;;;;;;;2.70;0.47;;;2.50;99.90;;;;;;4999708;28;20099;-64
2022/12/08 07:41:14;;;;;;;4.65;0.88;;;2.50;99.90;;;;;;5004552;28;20049;-64
2022/12/08 07:43:40;;;;;;;3.85;0.52;;;2.40;99.90;;;;;;4997475;28;20394;-64
2022/12/08 07:46:06;;;;;;;3.97;0.80;;;2.40;99.90;;;;;;5003612;28;20474;-63
2022/12/08 07:48:32;;;;;;;11.63;1.30;;;2.30;99.90;;;;;;5000688;28;20120;-65
2022/12/08 07:51:02;;;;;;;4.30;0.80;;;2.40;99.90;;;;;;5001444;28;20488;-63
2022/12/08 07:53:28;;;;;;;8.40;1.60;;;2.30;99.90;;;;;;5002863;28;20033;-63
2022/12/08 07:55:54;;;;;;;7.15;1.15;;;2.30;99.90;;;;;;5003372;28;20053;-64
2022/12/08 07:58:20;;;;;;;4.68;1.48;;;2.30;99.90;;;;;;5000495;28;20466;-64
2022/12/08 08:00:46;;;;;;;4.20;1.40;;;2.30;99.90;;;;;;4999524;28;20089;-64
2022/12/08 08:03:11;;;;;;;6.72;1.50;;;2.30;99.90;;;;;;5015021;28;20060;-64
2022/12/08 08:05:37;;;;;;;4.70;1.33;;;2.30;99.90;;;;;;5003595;28;20038;-65
2022/12/08 08:08:03;;;;;;;4.00;1.40;;;2.30;99.90;;;;;;4999496;28;20534;-64
2022/12/08 08:10:29;;;;;;;5.05;1.38;;;2.20;99.90;;;;;;5001756;28;20026;-64
2022/12/08 08:12:59;;;;;;;6.20;1.58;;;2.30;99.90;;;;;;5006851;28;20121;-63
2022/12/08 08:15:25;;;;;;;3.88;1.30;;;2.20;99.90;;;;;;5001944;28;20125;-63
2022/12/08 08:17:50;;;;;;;4.00;1.50;;;2.30;99.90;;;;;;5003314;28;20463;-64
2022/12/08 08:20:17;;;;;;;1.70;1.25;;;2.20;99.90;;;;;;5005909;28;20046;-64
2022/12/08 08:22:48;;;;;;;2.78;0.88;;;2.30;99.90;;;;;;5005024;28;20042;-64
2022/12/08 08:25:14;;;;;;;6.45;0.98;;;2.20;99.90;;;;;;5006345;28;20081;-63
2022/12/08 08:27:40;;;;;;;4.15;1.02;;;2.30;99.90;;;;;;5008458;28;20148;-63
2022/12/08 08:30:07;;;;;;;9.20;0.90;;;2.20;99.90;;;;;;5003692;28;20030;-64
2022/12/08 08:32:33;;;;;;;3.40;0.80;;;2.30;99.90;;;;;;5006081;28;20041;-63
2022/12/08 08:34:59;;;;;;;7.70;1.00;;;2.20;99.90;;;;;;5002778;28;20034;-64
2022/12/08 08:37:26;;;;;;;1.35;0.52;;;2.30;99.90;;;;;;5003283;28;20046;-63
2022/12/08 08:39:52;;;;;;;8.30;1.40;;;2.30;99.90;;;;;;5003696;28;20038;-63
2022/12/08 08:42:18;;;;;;;4.72;0.95;;;2.20;99.90;;;;;;5005633;28;20045;-64
2022/12/08 08:44:43;;;;;;;6.20;1.10;;;2.20;99.90;;;;;;5003883;28;20038;-64
2022/12/08 08:47:09;;;;;;;6.45;1.00;;;2.30;99.90;;;;;;5004402;28;20050;-63
2022/12/08 08:49:35;;;;;;;6.80;0.82;;;2.30;99.90;;;;;;5003952;28;20051;-63
2022/12/08 08:52:01;;;;;;;1.88;0.50;;;2.30;99.90;;;;;;5007445;28;20557;-63
2022/12/08 08:54:28;;;;;;;3.42;0.98;;;2.30;99.90;;;;;;5003997;28;20053;-65
2022/12/08 08:56:53;;;;;;;5.97;0.85;;;2.30;99.90;;;;;;5002181;28;20053;-63
2022/12/08 08:59:19;;;;;;;7.45;1.00;;;2.30;99.90;;;;;;5004325;28;20046;-63
2022/12/08 09:01:45;;;;;;;4.75;0.73;;;2.40;99.90;;;;;;5005922;28;20115;-64
2022/12/08 09:04:10;;;;;;;4.70;0.70;;;2.40;99.90;;;;;;5002076;28;20046;-63
2022/12/08 09:06:36;;;;;;;8.55;0.82;;;2.50;99.90;;;;;;5000231;28;20045;-64
2022/12/08 09:09:02;;;;;;;4.93;0.60;;;2.40;99.90;;;;;;4997102;28;20095;-63
2022/12/08 09:11:28;;;;;;;8.77;0.77;;;2.50;99.90;;;;;;5001891;28;20042;-63
2022/12/08 09:13:54;;;;;;;5.05;0.90;;;2.50;99.90;;;;;;5003499;28;20181;-63
2022/12/08 09:16:21;;;;;;;4.22;0.70;;;2.60;99.90;;;;;;5004714;28;20133;-63
2022/12/08 09:18:48;;;;;;;6.95;0.43;;;2.60;99.90;;;;;;4997189;28;20145;-63
2022/12/08 09:21:19;;;;;;;3.00;0.40;;;2.70;99.90;;;;;;4999980;28;20413;-63
2022/12/08 09:23:45;;;;;;;4.65;0.70;;;2.70;99.90;;;;;;5002394;28;20054;-63
2022/12/08 09:26:10;;;;;;;4.57;0.60;;;2.70;99.90;;;;;;5000986;28;20493;-63
2022/12/08 09:28:37;;;;;;;5.28;0.60;;;2.70;99.90;;;;;;4999268;28;20084;-64
2022/12/08 09:31:03;;;;;;;3.92;0.60;;;2.80;99.90;;;;;;5002700;28;20493;-64
2022/12/08 09:33:29;;;;;;;6.13;0.50;;;2.70;99.90;;;;;;5003337;28;20038;-64
2022/12/08 09:35:54;;;;;;;1.83;0.50;;;2.80;99.90;;;;;;4999898;28;20063;-64
2022/12/08 09:38:20;;;;;;;3.63;0.45;;;2.70;99.90;;;;;;5001298;28;20038;-64
2022/12/08 09:40:52;;;;;;;3.22;0.57;;;2.80;99.90;;;;;;5003770;28;20073;-64
2022/12/08 09:43:44;;;;;;;1.63;0.57;;;2.70;99.90;;;;;;5001804;28;20038;-63
2022/12/08 09:46:16;;;;;;;1.95;0.55;;;2.70;99.90;;;;;;5002682;28;20137;-64
2022/12/08 09:48:54;;;;;;;7.28;0.82;;;2.70;99.90;;;;;;5001444;28;20038;-64
2022/12/08 09:51:24;;;;;;;5.03;0.98;;;2.70;99.90;;;;;;5003718;28;20048;-64
2022/12/08 09:53:53;;;;;;;5.93;1.33;;;2.70;99.90;;;;;;5002217;28;20532;-64
2022/12/08 09:56:25;;;;;;;4.82;0.90;;;2.70;99.90;;;;;;5019851;28;20478;-64
2022/12/08 09:59:03;;;;;;;5.25;1.50;;;2.70;99.90;;;;;;5005100;28;20108;-64
2022/12/08 10:01:31;;;;;;;5.22;2.00;;;2.70;99.90;;;;;;5002355;28;20421;-64
2022/12/08 10:03:57;;;;;;;8.18;1.73;;;2.60;99.90;;;;;;5001712;28;20074;-64
2022/12/08 10:06:40;;;;;;;5.18;1.83;;;2.70;99.90;;;;;;5003761;28;20120;-64
2022/12/08 10:09:24;;;;;;;9.00;2.15;;;2.60;99.90;;;;;;4998658;28;20038;-64
2022/12/08 10:12:02;;;;;;;6.45;2.17;;;2.60;99.90;;;;;;5001263;28;20042;-64
2022/12/08 10:14:40;;;;;;;6.30;3.15;;;2.60;99.90;;;;;;5003590;28;20560;-63
2022/12/08 10:17:40;;;;;;;5.00;2.75;;;2.60;99.90;;;;;;4999354;28;20474;-64
2022/12/08 10:20:18;;;;;;;7.95;3.13;;;2.70;99.90;;;;;;4993801;28;20038;-64
2022/12/08 10:22:46;;;;;;;4.97;2.83;;;2.60;99.90;;;;;;5001026;28;20073;-64
2022/12/08 10:25:38;;;;;;;8.45;3.10;;;2.60;99.90;;;;;;5001811;28;20120;-64
2022/12/08 10:28:04;;;;;;;6.32;2.58;;;2.60;99.90;;;;;;5004449;28;20390;-63
2022/12/08 10:30:30;;;;;;;3.90;2.28;;;2.50;99.90;;;;;;5001192;28;20045;-63
2022/12/08 10:32:56;;;;;;;9.98;3.08;;;2.60;99.90;;;;;;4997222;28;20035;-64
2022/12/08 10:35:24;;;;;;;6.72;3.00;;;2.50;99.90;;;;;;5000219;28;20061;-64
2022/12/08 10:38:00;;;;;;;6.40;3.63;;;2.60;99.90;;;;;;5003680;28;20034;-64
2022/12/08 10:40:28;;;;;;;6.63;3.70;;;2.50;99.90;;;;;;4998564;28;20034;-64
2022/12/08 10:42:58;;;;;;;8.43;3.15;;;2.60;99.90;;;;;;5004968;28;20049;-64
2022/12/08 10:45:36;;;;;;;7.13;3.63;;;2.60;99.90;;;;;;5002288;28;20030;-64
2022/12/08 10:48:12;;;;;;;7.20;3.10;;;2.60;99.90;;;;;;5000993;28;20101;-64
2022/12/08 10:50:51;;;;;;;5.35;2.80;;;2.50;99.90;;;;;;4999859;28;20042;-63
2022/12/08 10:53:23;;;;;;;6.78;3.38;;;2.60;99.90;;;;;;5003675;28;20524;-63
2022/12/08 10:56:06;;;;;;;5.82;2.85;;;2.50;99.90;;;;;;4999530;28;20061;-64
2022/12/08 10:58:39;;;;;;;7.28;2.97;;;2.60;99.90;;;;;;5015578;28;20450;-64
2022/12/08 11:01:17;;;;;;;9.15;2.95;;;2.60;99.90;;;;;;4997241;28;20077;-64
2022/12/08 11:03:45;;;;;;;10.80;2.92;;;2.50;99.90;;;;;;4998826;28;20092;-64
2022/12/08 11:06:22;;;;;;;7.18;3.00;;;2.50;99.90;;;;;;5001083;28;20121;-64
2022/12/08 11:09:02;;;;;;;7.10;2.50;;;2.50;99.90;;;;;;5002091;28;20074;-64
2022/12/08 11:11:46;;;;;;;7.72;2.42;;;2.50;99.90;;;;;;5000734;28;20260;-64
2022/12/08 11:14:22;;;;;;;7.13;2.30;;;2.50;99.90;;;;;;4995790;28;20125;-64
2022/12/08 11:16:53;;;;;;;5.50;2.15;;;2.40;99.90;;;;;;4997900;28;20092;-65
2022/12/08 11:19:20;;;;;;;8.07;2.70;;;2.40;99.90;;;;;;4999166;28;20453;-64
2022/12/08 11:21:46;;;;;;;7.28;2.50;;;2.40;99.90;;;;;;5000705;28;20038;-64
2022/12/08 11:24:15;;;;;;;5.25;2.60;;;2.40;99.90;;;;;;5002888;28;20045;-64
2022/12/08 11:26:48;;;;;;;5.20;2.38;;;2.40;99.90;;;;;;4997329;28;20069;-64
2022/12/08 11:29:15;;;;;;;8.40;2.20;;;2.40;99.90;;;;;;5003448;28;20079;-64
2022/12/08 11:31:48;;;;;;;10.43;2.03;;;2.50;99.90;;;;;;4994558;28;20038;-64
2022/12/08 11:34:26;;;;;;;6.43;1.65;;;2.50;99.90;;;;;;4993467;28;20034;-64
2022/12/08 11:36:54;;;;;;;6.13;1.90;;;2.50;99.90;;;;;;4993148;28;21020;-64
2022/12/08 11:39:21;;;;;;;7.18;1.88;;;2.60;99.90;;;;;;4994927;28;20037;-64
2022/12/08 11:41:49;;;;;;;9.40;3.13;;;2.60;99.90;;;;;;4997029;28;20035;-64
2022/12/08 11:44:43;;;;;;;5.40;2.25;;;2.60;99.90;;;;;;4999115;28;20046;-64
2022/12/08 11:47:32;;;;;;;8.95;2.08;;;2.60;99.90;;;;;;4992006;28;20042;-65
2022/12/08 11:50:12;;;;;;;8.70;2.33;;;2.70;99.90;;;;;;4998795;28;20339;-63
2022/12/08 11:52:45;;;;;;;10.05;2.20;;;2.70;99.90;;;;;;4995784;28;20080;-64
2022/12/08 11:55:35;;;;;;;6.13;2.28;;;2.70;99.90;;;;;;4996555;28;20129;-64
2022/12/08 11:58:25;;;;;;;4.18;2.30;;;2.70;99.90;;;;;;4995478;28;20445;-64
2022/12/08 12:00:51;;;;;;;4.57;2.10;;;2.80;99.90;;;;;;4993531;28;20253;-65
2022/12/08 12:03:28;;;;;;;5.15;3.15;;;2.90;99.90;;;;;;4995005;28;20490;-64
2022/12/08 12:06:33;;;;;;;5.75;2.60;;;3.10;99.90;;;;;;4991458;28;20057;-64
2022/12/08 12:09:16;;;;;;;5.50;2.72;;;3.20;99.90;;;;;;4994051;28;20058;-64
2022/12/08 12:12:14;;;;;;;4.93;2.28;;;3.40;99.90;;;;;;4994401;28;20053;-64
2022/12/08 12:14:40;;;;;;;7.50;2.67;;;3.50;99.90;;;;;;4997810;28;20053;-65
2022/12/08 12:17:40;;;;;;;6.35;3.45;;;3.80;99.90;;;;;;4996138;28;20046;-65
2022/12/08 12:20:27;;;;;;;6.60;2.65;;;4.00;99.90;;;;;;4994274;28;20468;-64
2022/12/08 12:23:06;;;;;;;9.35;2.92;;;4.20;99.90;;;;;;4998941;28;20046;-64
2022/12/08 12:25:34;;;;;;;6.88;2.70;;;4.30;99.90;;;;;;4998037;28;20058;-64
2022/12/08 12:28:03;;;;;;;8.48;2.95;;;4.40;99.90;;;;;;4993930;28;20034;-64
2022/12/08 12:30:49;;;;;;;7.10;3.10;;;4.60;99.90;;;;;;5001293;28;20026;-65
2022/12/08 12:33:19;;;;;;;7.13;2.78;;;4.70;99.90;;;;;;4996528;28;20052;-64
2022/12/08 12:35:48;;;;;;;10.10;3.08;;;4.70;99.90;;;;;;4993161;28;20046;-64
2022/12/08 12:39:07;;;;;;;5.93;3.50;;;4.80;99.90;;;;;;4996275;28;20113;-64
2022/12/08 12:41:44;;;;;;;4.93;2.72;;;4.90;99.90;;;;;;4990678;28;20041;-64
2022/12/08 12:44:12;;;;;;;6.80;2.80;;;4.80;99.90;;;;;;4995163;28;20668;-64
2022/12/08 12:46:52;;;;;;;6.10;2.17;;;4.90;99.90;;;;;;4997438;28;20033;-64
2022/12/08 12:49:39;;;;;;;5.68;2.35;;;4.90;99.90;;;;;;4996918;28;20034;-64
2022/12/08 12:52:14;;;;;;;4.63;1.08;;;4.80;99.90;;;;;;4993276;28;20066;-64
2022/12/08 12:54:44;;;;;;;4.55;1.00;;;4.80;99.90;;;;;;4995028;28;20137;-65
2022/12/08 12:57:10;;;;;;;5.95;0.95;;;4.90;99.90;;;;;;4994501;28;20549;-65
2022/12/08 12:59:50;;;;;;;3.83;0.60;;;4.90;99.90;;;;;;4995545;28;20046;-64
2022/12/08 13:02:48;;;;;;;3.42;0.50;;;4.90;99.90;;;;;;4994008;28;20390;-65
2022/12/08 13:05:19;;;;;;;4.20;0.63;;;4.70;99.90;;;;;;4996056;28;20050;-65
2022/12/08 13:07:57;;;;;;;6.22;0.50;;;4.60;99.90;;;;;;4998011;28;20040;-64
2022/12/08 13:10:32;;;;;;;3.10;0.47;;;4.50;99.90;;;;;;5000583;28;20049;-65
2022/12/08 13:13:11;;;;;;;3.67;0.50;;;4.40;99.90;;;;;;4998418;28;20048;-64
2022/12/08 13:15:51;;;;;;;6.28;0.60;;;4.30;99.90;;;;;;5000019;28;20385;-64
2022/12/08 13:18:38;;;;;;;3.03;0.30;;;4.10;99.90;;;;;;5001139;28;20491;-65
2022/12/08 13:21:07;;;;;;;4.97;0.73;;;4.00;99.90;;;;;;5003125;28;20038;-65